createdAt,value
2022-12-01T00:00:20.702Z,94230.38
2022-12-01T00:01:15.024Z,94222.89
2022-12-01T00:01:49.988Z,94231.11
2022-12-01T00:02:23.481Z,94227.99
2022-12-01T00:02:57.061Z,94226.13
2022-12-01T00:03:31.921Z,94226.02
2022-12-01T00:04:05.649Z,94224.64
2022-12-01T00:04:41.418Z,94228.13
2022-12-01T00:05:14.855Z,94221.52
2022-12-01T00:05:48.233Z,94222.19
2022-12-01T00:06:21.875Z,94225.58
2022-12-01T00:06:55.093Z,94224.53
2022-12-01T00:07:28.481Z,94219.67
2022-12-01T00:08:02.418Z,94220.23
2022-12-01T00:08:35.961Z,94220.23
2022-12-01T00:09:28.365Z,94218.13
2022-12-01T00:10:20.236Z,94219.23
2022-12-01T00:10:53.788Z,94215.36
2022-12-01T00:11:27.051Z,94216.55
2022-12-01T00:12:00.419Z,94215.88
2022-12-01T00:12:33.780Z,94222.46
2022-12-01T00:13:07.077Z,94218.77
2022-12-01T00:13:40.455Z,94218.80
2022-12-01T00:14:13.836Z,94219.73
2022-12-01T00:14:54.990Z,94218.81
2022-12-01T00:15:30.986Z,94223.10
2022-12-01T00:16:16.897Z,94218.65
2022-12-01T00:16:50.522Z,94216.53
2022-12-01T00:17:23.848Z,94218.85
2022-12-01T00:17:58.737Z,94220.29
2022-12-01T00:18:32.005Z,94217.33
2022-12-01T00:19:05.711Z,94221.36
2022-12-01T00:19:39.196Z,94219.41
2022-12-01T00:20:12.991Z,94221.38
2022-12-01T00:20:49.216Z,94224.46
2022-12-01T00:21:24.187Z,94222.08
2022-12-01T00:21:57.561Z,94220.98
2022-12-01T00:22:30.936Z,94221.38
2022-12-01T00:23:04.447Z,94222.45
2022-12-01T00:23:37.831Z,94217.23
2022-12-01T00:24:13.545Z,94217.46
2022-12-01T00:24:47.205Z,94220.45
2022-12-01T00:25:21.266Z,94220.09
2022-12-01T00:25:54.619Z,94221.39
2022-12-01T00:26:28.079Z,94218.34
2022-12-01T00:27:01.415Z,94213.77
2022-12-01T00:27:37.087Z,94213.35
2022-12-01T00:28:10.524Z,94211.09
2022-12-01T00:28:44.177Z,94216.62
2022-12-01T00:29:17.428Z,94220.41
2022-12-01T00:29:50.837Z,94212.92
2022-12-01T00:30:24.244Z,94212.45
2022-12-01T00:30:57.830Z,94204.73
2022-12-01T00:31:31.354Z,94210.46
2022-12-01T00:32:05.090Z,94213.20
2022-12-01T00:32:38.871Z,94216.09
2022-12-01T00:33:12.108Z,94214.95
2022-12-01T00:33:45.376Z,94219.35
2022-12-01T00:34:23.728Z,94214.48
2022-12-01T00:34:57.019Z,94215.15
2022-12-01T00:35:30.341Z,94215.41
2022-12-01T00:36:04.614Z,94210.98
2022-12-01T00:36:38.833Z,94213.74
2022-12-01T00:37:12.043Z,94213.98
2022-12-01T00:37:45.779Z,94221.04
2022-12-01T00:38:19.067Z,94217.71
2022-12-01T00:38:56.423Z,94215.77
2022-12-01T00:39:29.838Z,94213.88
2022-12-01T00:40:04.204Z,94216.09
2022-12-01T00:40:37.541Z,94218.77
2022-12-01T00:41:11.041Z,94213.58
2022-12-01T00:41:44.445Z,94213.95
2022-12-01T00:42:20.935Z,94215.53
2022-12-01T00:42:54.576Z,94219.05
2022-12-01T00:43:27.916Z,94216.50
2022-12-01T00:44:01.223Z,94215.34
2022-12-01T00:44:34.496Z,94211.96
2022-12-01T00:45:08.467Z,94213.90
2022-12-01T00:45:43.229Z,94217.40
2022-12-01T00:46:17.117Z,94216.68
2022-12-01T00:46:50.478Z,94223.04
2022-12-01T00:47:24.402Z,94220.32
2022-12-01T00:47:57.687Z,94220.11
2022-12-01T00:48:31.436Z,94222.09
2022-12-01T00:49:06.277Z,94224.63
2022-12-01T00:49:39.888Z,94219.73
2022-12-01T00:50:13.219Z,94226.52
2022-12-01T00:50:46.556Z,94223.35
2022-12-01T00:51:20.031Z,94225.30
2022-12-01T00:51:53.524Z,94222.40
2022-12-01T00:52:26.826Z,94224.98
2022-12-01T00:53:00.073Z,94226.71
2022-12-01T00:53:33.495Z,94226.21
2022-12-01T00:54:07.167Z,94228.73
2022-12-01T00:54:41.017Z,94226.31
2022-12-01T00:55:16.616Z,94228.57
2022-12-01T00:55:50.076Z,94229.11
2022-12-01T00:56:23.496Z,94231.86
2022-12-01T00:56:56.766Z,94233.95
2022-12-01T00:57:29.987Z,94235.12
2022-12-01T00:58:03.609Z,94232.15
2022-12-01T00:58:36.810Z,94234.30
2022-12-01T00:59:10.188Z,94234.77
2022-12-01T00:59:43.461Z,94233.50
2022-12-01T01:00:17.385Z,94234.43
2022-12-01T01:01:00.876Z,94239.95
2022-12-01T01:01:34.936Z,94232.84
2022-12-01T01:02:09.207Z,94231.66
2022-12-01T01:02:42.555Z,94229.21
2022-12-01T01:03:15.951Z,94232.50
2022-12-01T01:03:49.307Z,94229.85
2022-12-01T01:04:22.867Z,94233.10
2022-12-01T01:04:56.179Z,94228.14
2022-12-01T01:05:29.533Z,94228.83
2022-12-01T01:06:13.160Z,94228.95
2022-12-01T01:06:46.755Z,94229.45
2022-12-01T01:07:20.633Z,94227.78
2022-12-01T01:07:54.024Z,94227.42
2022-12-01T01:08:27.310Z,94226.91
2022-12-01T01:09:00.591Z,94230.78
2022-12-01T01:09:33.916Z,94228.63
2022-12-01T01:10:07.987Z,94229.27
2022-12-01T01:10:44.066Z,94231.48
2022-12-01T01:11:17.322Z,94231.47
2022-12-01T01:11:50.691Z,94229.94
2022-12-01T01:12:23.853Z,94232.17
2022-12-01T01:12:57.046Z,94227.86
2022-12-01T01:13:30.331Z,94230.76
2022-12-01T01:14:04.451Z,94228.80
2022-12-01T01:14:37.636Z,94229.06
2022-12-01T01:15:11.050Z,94232.73
2022-12-01T01:15:44.475Z,94231.52
2022-12-01T01:16:21.089Z,94233.80
2022-12-01T01:16:56.490Z,94234.98
2022-12-01T01:17:29.857Z,94234.60
2022-12-01T01:18:03.807Z,94236.02
2022-12-01T01:18:37.082Z,94238.50
2022-12-01T01:19:10.851Z,94234.69
2022-12-01T01:19:44.171Z,94239.75
2022-12-01T01:20:18.010Z,94233.83
2022-12-01T01:21:04.562Z,94237.48
2022-12-01T01:21:39.414Z,94232.36
2022-12-01T01:22:13.043Z,94230.70
2022-12-01T01:22:46.424Z,94230.48
2022-12-01T01:23:19.752Z,94231.92
2022-12-01T01:23:54.826Z,94221.48
2022-12-01T01:24:28.150Z,94230.40
2022-12-01T01:25:01.412Z,94228.25
2022-12-01T01:25:34.925Z,94230.84
2022-12-01T01:26:17.110Z,94227.73
2022-12-01T01:26:50.967Z,94225.59
2022-12-01T01:27:24.399Z,94227.05
2022-12-01T01:27:57.741Z,94225.95
2022-12-01T01:28:32.341Z,94225.20
2022-12-01T01:29:08.026Z,94228.08
2022-12-01T01:29:42.748Z,94223.00
2022-12-01T01:30:16.248Z,94225.00
2022-12-01T01:30:49.738Z,94227.92
2022-12-01T01:31:25.167Z,94224.09
2022-12-01T01:31:58.581Z,94218.38
2022-12-01T01:32:31.857Z,94225.04
2022-12-01T01:33:05.430Z,94219.17
2022-12-01T01:33:38.861Z,94222.94
2022-12-01T01:34:12.215Z,94221.59
2022-12-01T01:34:45.906Z,94227.06
2022-12-01T01:35:20.935Z,94227.42
2022-12-01T01:35:58.452Z,94229.20
2022-12-01T01:36:32.151Z,94225.93
2022-12-01T01:37:05.584Z,94225.43
2022-12-01T01:37:39.175Z,94224.02
2022-12-01T01:38:12.566Z,94225.39
2022-12-01T01:38:46.449Z,94225.46
2022-12-01T01:39:19.722Z,94228.77
2022-12-01T01:39:53.075Z,94230.05
2022-12-01T01:40:26.961Z,94227.81
2022-12-01T01:41:00.845Z,94227.52
2022-12-01T01:41:34.286Z,94226.54
2022-12-01T01:42:12.836Z,94225.73
2022-12-01T01:42:46.578Z,94221.30
2022-12-01T01:43:39.314Z,94224.66
2022-12-01T01:44:58.834Z,94223.85
2022-12-01T01:45:32.149Z,94225.55
2022-12-01T01:46:06.755Z,94221.21
2022-12-01T01:46:40.226Z,94225.29
2022-12-01T01:47:14.342Z,94222.69
2022-12-01T01:47:52.176Z,94220.63
2022-12-01T01:48:25.477Z,94222.19
2022-12-01T01:49:02.655Z,94216.65
2022-12-01T01:49:36.069Z,94217.67
2022-12-01T01:50:12.936Z,94220.04
2022-12-01T01:50:46.151Z,94215.34
2022-12-01T01:51:27.320Z,94217.10
2022-12-01T01:52:00.918Z,94215.23
2022-12-01T01:52:38.619Z,94219.20
2022-12-01T01:53:15.096Z,94219.88
2022-12-01T01:53:53.169Z,94217.38
2022-12-01T01:54:35.541Z,94221.92
2022-12-01T01:55:09.620Z,94216.31
2022-12-01T01:55:43.616Z,94216.98
2022-12-01T01:56:16.816Z,94219.48
2022-12-01T01:56:52.769Z,94216.42
2022-12-01T01:57:30.928Z,94214.98
2022-12-01T01:58:10.542Z,94211.35
2022-12-01T01:58:44.917Z,94216.57
2022-12-01T01:59:23.158Z,94215.89
2022-12-01T02:00:18.358Z,94215.18
2022-12-01T02:00:51.748Z,94216.08
2022-12-01T02:01:25.189Z,94217.02
2022-12-01T02:02:16.737Z,94213.02
2022-12-01T02:02:51.007Z,94216.03
2022-12-01T02:03:26.457Z,94212.10
2022-12-01T02:04:00.223Z,94217.80
2022-12-01T02:04:36.725Z,94216.89
2022-12-01T02:05:19.536Z,94213.23
2022-12-01T02:05:53.120Z,94217.12
2022-12-01T02:06:26.520Z,94217.56
2022-12-01T02:07:00.106Z,94216.85
2022-12-01T02:07:33.744Z,94211.75
2022-12-01T02:08:12.518Z,94217.55
2022-12-01T02:08:45.767Z,94219.00
2022-12-01T02:09:19.144Z,94215.84
2022-12-01T02:09:53.988Z,94217.35
2022-12-01T02:10:47.171Z,94217.90
2022-12-01T02:11:31.853Z,94219.54
2022-12-01T02:12:17.006Z,94219.23
2022-12-01T02:13:11.540Z,94215.96
2022-12-01T02:14:40.709Z,94215.52
2022-12-01T02:15:22.419Z,94213.50
2022-12-01T02:15:55.586Z,94216.38
2022-12-01T02:16:50.230Z,94216.20
2022-12-01T02:17:30.641Z,94215.50
2022-12-01T02:18:15.821Z,94217.30
2022-12-01T02:19:26.345Z,94215.03
2022-12-01T02:20:05.578Z,94211.45
2022-12-01T02:21:13.961Z,94207.45
2022-12-01T02:22:02.257Z,94210.78
2022-12-01T02:23:16.772Z,94206.02
2022-12-01T02:23:55.728Z,94209.15
2022-12-01T02:25:07.777Z,94208.57
2022-12-01T02:26:17.756Z,94208.37
2022-12-01T02:27:07.912Z,94204.80
2022-12-01T02:28:08.596Z,94208.73
2022-12-01T02:28:44.707Z,94204.70
2022-12-01T02:29:56.073Z,94208.77
2022-12-01T02:30:59.958Z,94212.45
2022-12-01T02:31:59.753Z,94209.09
2022-12-01T02:32:46.885Z,94210.27
2022-12-01T02:33:42.690Z,94209.58
2022-12-01T02:34:34.946Z,94209.72
2022-12-01T02:35:22.942Z,94204.23
2022-12-01T02:36:25.500Z,94199.59
2022-12-01T02:37:06.715Z,94194.55
2022-12-01T02:37:46.294Z,94195.71
2022-12-01T02:38:35.933Z,94204.64
2022-12-01T02:39:17.395Z,94201.61
2022-12-01T02:40:25.699Z,94199.59
2022-12-01T02:41:20.656Z,94201.90
2022-12-01T02:42:09.870Z,94206.70
2022-12-01T02:43:02.495Z,94204.05
2022-12-01T02:43:45.793Z,94204.45
2022-12-01T02:44:24.020Z,94203.89
2022-12-01T02:44:58.938Z,94200.87
2022-12-01T02:45:40.359Z,94200.46
2022-12-01T02:46:24.665Z,94199.77
2022-12-01T02:47:03.338Z,94198.28
2022-12-01T02:47:40.311Z,94198.52
2022-12-01T02:48:22.984Z,94197.10
2022-12-01T02:49:00.209Z,94196.42
2022-12-01T02:50:45.230Z,94199.89
2022-12-01T02:51:30.380Z,94198.12
2022-12-01T02:52:06.467Z,94195.02
2022-12-01T02:52:41.770Z,94197.82
2022-12-01T02:53:19.070Z,94197.69
2022-12-01T02:53:53.581Z,94196.83
2022-12-01T02:54:31.505Z,94197.52
2022-12-01T02:55:05.168Z,94198.19
2022-12-01T02:55:47.794Z,94199.31
2022-12-01T02:56:23.680Z,94195.48
2022-12-01T02:56:59.225Z,94198.11
2022-12-01T02:57:32.550Z,94200.61
2022-12-01T02:58:15.447Z,94189.21
2022-12-01T02:58:48.841Z,94199.36
2022-12-01T02:59:22.155Z,94196.64
2022-12-01T02:59:56.096Z,94197.77
2022-12-01T03:00:31.224Z,94198.92
2022-12-01T03:01:18.562Z,94198.84
2022-12-01T03:02:24.844Z,94198.86
2022-12-01T03:03:24.836Z,94203.23
2022-12-01T03:04:24.421Z,94205.60
2022-12-01T03:05:09.726Z,94208.47
2022-12-01T03:06:14.088Z,94201.30
2022-12-01T03:07:06.075Z,94208.54
2022-12-01T03:07:51.661Z,94204.63
2022-12-01T03:08:46.259Z,94204.13
2022-12-01T03:09:41.691Z,94199.57
2022-12-01T03:10:47.021Z,94202.64
2022-12-01T03:11:28.191Z,94203.69
2022-12-01T03:12:01.323Z,94202.54
2022-12-01T03:13:02.471Z,94202.68
2022-12-01T03:13:55.399Z,94205.44
2022-12-01T03:14:51.690Z,94199.83
2022-12-01T03:15:42.407Z,94203.52
2022-12-01T03:16:21.278Z,94200.59
2022-12-01T03:16:54.905Z,94196.86
2022-12-01T03:17:39.459Z,94199.64
2022-12-01T03:18:34.439Z,94199.43
2022-12-01T03:19:14.686Z,94199.64
2022-12-01T03:19:56.391Z,94198.32
2022-12-01T03:20:47.593Z,94194.13
2022-12-01T03:21:23.496Z,94192.55
2022-12-01T03:22:16.447Z,94196.89
2022-12-01T03:22:59.446Z,94198.80
2022-12-01T03:23:37.947Z,94196.09
2022-12-01T03:24:18.040Z,94196.45
2022-12-01T03:24:56.334Z,94194.17
2022-12-01T03:25:31.750Z,94192.80
2022-12-01T03:26:07.830Z,94192.52
2022-12-01T03:26:43.293Z,94197.52
2022-12-01T03:27:22.487Z,94194.80
2022-12-01T03:28:25.618Z,94196.92
2022-12-01T03:28:56.832Z,94193.85
2022-12-01T03:29:40.179Z,94195.82
2022-12-01T03:30:14.786Z,94191.83
2022-12-01T03:30:50.995Z,94192.02
2022-12-01T03:31:36.080Z,94188.48
2022-12-01T03:32:18.479Z,94186.98
2022-12-01T03:32:58.663Z,94187.33
2022-12-01T03:33:48.030Z,94187.58
2022-12-01T03:34:50.059Z,94186.88
2022-12-01T03:35:30.305Z,94183.77
2022-12-01T03:36:10.223Z,94187.25
2022-12-01T03:36:48.157Z,94183.71
2022-12-01T03:37:31.660Z,94186.54
2022-12-01T03:38:36.483Z,94184.02
2022-12-01T03:39:16.348Z,94184.65
2022-12-01T03:39:59.745Z,94182.73
2022-12-01T03:40:37.351Z,94179.13
2022-12-01T03:41:16.585Z,94180.33
2022-12-01T03:42:19.970Z,94183.84
2022-12-01T03:43:00.599Z,94181.60
2022-12-01T03:43:38.570Z,94183.64
2022-12-01T03:44:21.471Z,94182.11
2022-12-01T03:44:58.940Z,94181.95
2022-12-01T03:45:59.370Z,94181.02
2022-12-01T03:47:13.661Z,94181.65
2022-12-01T03:47:47.132Z,94182.92
2022-12-01T03:48:21.667Z,94180.49
2022-12-01T03:48:55.351Z,94183.63
2022-12-01T03:49:29.245Z,94183.31
2022-12-01T03:50:04.705Z,94180.09
2022-12-01T03:51:07.081Z,94184.16
2022-12-01T03:51:49.930Z,94184.84
2022-12-01T03:52:42.292Z,94183.20
2022-12-01T03:53:23.335Z,94181.94
2022-12-01T03:54:01.884Z,94181.17
2022-12-01T03:54:37.715Z,94182.13
2022-12-01T03:55:19.836Z,94180.26
2022-12-01T03:56:01.637Z,94180.45
2022-12-01T03:56:44.015Z,94173.20
2022-12-01T03:57:38.661Z,94182.43
2022-12-01T03:58:17.342Z,94180.91
2022-12-01T03:58:56.017Z,94180.27
2022-12-01T03:59:30.997Z,94182.08
2022-12-01T04:00:07.465Z,94178.30
2022-12-01T04:00:50.106Z,94172.65
2022-12-01T04:01:23.792Z,94181.36
2022-12-01T04:01:58.202Z,94182.88
2022-12-01T04:02:32.144Z,94183.23
2022-12-01T04:03:06.710Z,94185.79
2022-12-01T04:03:40.235Z,94181.31
2022-12-01T04:04:15.046Z,94181.50
2022-12-01T04:04:48.239Z,94181.60
2022-12-01T04:05:25.286Z,94183.76
2022-12-01T04:05:59.765Z,94184.40
2022-12-01T04:06:33.769Z,94184.36
2022-12-01T04:07:07.386Z,94180.17
2022-12-01T04:07:41.184Z,94185.08
2022-12-01T04:08:14.552Z,94181.52
2022-12-01T04:08:47.731Z,94184.39
2022-12-01T04:09:21.100Z,94182.80
2022-12-01T04:09:54.341Z,94184.80
2022-12-01T04:10:27.718Z,94183.29
2022-12-01T04:11:00.946Z,94181.80
2022-12-01T04:11:52.496Z,94182.56
2022-12-01T04:12:33.161Z,94182.58
2022-12-01T04:13:12.126Z,94181.14
2022-12-01T04:13:45.468Z,94178.57
2022-12-01T04:14:18.823Z,94185.55
2022-12-01T04:14:52.002Z,94180.55
2022-12-01T04:15:26.127Z,94183.11
2022-12-01T04:16:01.751Z,94181.95
2022-12-01T04:16:35.236Z,94182.14
2022-12-01T04:17:08.692Z,94184.63
2022-12-01T04:17:46.024Z,94184.70
2022-12-01T04:18:19.929Z,94182.66
2022-12-01T04:18:53.172Z,94182.06
2022-12-01T04:19:26.529Z,94180.59
2022-12-01T04:20:01.118Z,94182.75
2022-12-01T04:20:34.504Z,94182.84
2022-12-01T04:21:07.960Z,94181.98
2022-12-01T04:21:41.390Z,94180.68
2022-12-01T04:22:14.663Z,94185.06
2022-12-01T04:22:48.108Z,94185.78
2022-12-01T04:23:40.258Z,94184.94
2022-12-01T04:24:14.092Z,94182.44
2022-12-01T04:24:47.440Z,94184.96
2022-12-01T04:25:20.694Z,94181.55
2022-12-01T04:25:59.172Z,94183.70
2022-12-01T04:26:35.312Z,94181.02
2022-12-01T04:27:11.834Z,94182.27
2022-12-01T04:27:45.113Z,94185.52
2022-12-01T04:28:18.515Z,94180.06
2022-12-01T04:28:51.907Z,94180.84
2022-12-01T04:29:25.152Z,94186.46
2022-12-01T04:29:58.655Z,94182.83
2022-12-01T04:30:32.650Z,94183.89
2022-12-01T04:31:06.075Z,94181.28
2022-12-01T04:31:39.880Z,94185.48
2022-12-01T04:32:13.743Z,94184.36
2022-12-01T04:32:47.142Z,94184.33
2022-12-01T04:33:21.279Z,94182.83
2022-12-01T04:33:56.140Z,94184.31
2022-12-01T04:34:29.491Z,94183.88
2022-12-01T04:35:02.725Z,94183.21
2022-12-01T04:35:35.995Z,94182.75
2022-12-01T04:36:09.680Z,94182.41
2022-12-01T04:36:42.990Z,94182.41
2022-12-01T04:37:16.970Z,94186.45
2022-12-01T04:37:50.193Z,94182.34
2022-12-01T04:38:27.500Z,94181.35
2022-12-01T04:39:04.183Z,94171.95
2022-12-01T04:39:37.578Z,94182.86
2022-12-01T04:40:11.601Z,94187.23
2022-12-01T04:40:44.915Z,94187.31
2022-12-01T04:41:18.286Z,94182.45
2022-12-01T04:41:51.540Z,94187.25
2022-12-01T04:42:24.858Z,94183.19
2022-12-01T04:42:58.215Z,94185.70
2022-12-01T04:43:31.523Z,94184.66
2022-12-01T04:44:05.395Z,94184.75
2022-12-01T04:44:38.851Z,94182.33
2022-12-01T04:45:12.067Z,94185.45
2022-12-01T04:45:45.336Z,94181.65
2022-12-01T04:46:18.928Z,94186.23
2022-12-01T04:46:53.277Z,94183.13
2022-12-01T04:47:26.585Z,94182.92
2022-12-01T04:47:59.874Z,94182.77
2022-12-01T04:48:36.103Z,94182.16
2022-12-01T04:49:09.729Z,94180.45
2022-12-01T04:49:42.946Z,94184.34
2022-12-01T04:50:16.228Z,94181.16
2022-12-01T04:50:50.077Z,94180.94
2022-12-01T04:51:23.534Z,94180.17
2022-12-01T04:51:56.765Z,94179.88
2022-12-01T04:52:35.025Z,94179.84
2022-12-01T04:53:09.909Z,94182.63
2022-12-01T04:53:43.387Z,94182.73
2022-12-01T04:54:16.869Z,94182.67
2022-12-01T04:54:50.137Z,94182.67
2022-12-01T04:55:23.615Z,94181.80
2022-12-01T04:55:56.806Z,94182.37
2022-12-01T04:56:30.275Z,94184.27
2022-12-01T04:57:03.897Z,94184.34
2022-12-01T04:57:37.128Z,94184.94
2022-12-01T04:58:10.496Z,94187.61
2022-12-01T04:58:44.642Z,94191.09
2022-12-01T04:59:18.268Z,94188.53
2022-12-01T04:59:51.952Z,94186.35
2022-12-01T05:00:25.952Z,94191.41
2022-12-01T05:01:08.291Z,94183.27
2022-12-01T05:01:41.966Z,94187.98
2022-12-01T05:02:15.324Z,94189.29
2022-12-01T05:02:48.633Z,94186.48
2022-12-01T05:03:22.016Z,94187.60
2022-12-01T05:03:55.325Z,94185.78
2022-12-01T05:04:28.588Z,94187.08
2022-12-01T05:05:01.824Z,94191.67
2022-12-01T05:05:35.143Z,94190.00
2022-12-01T05:06:11.932Z,94190.91
2022-12-01T05:06:45.432Z,94184.16
2022-12-01T05:07:18.721Z,94189.15
2022-12-01T05:07:52.092Z,94187.45
2022-12-01T05:08:25.502Z,94188.15
2022-12-01T05:09:01.353Z,94190.06
2022-12-01T05:09:34.727Z,94193.77
2022-12-01T05:10:08.789Z,94198.83
2022-12-01T05:10:42.142Z,94196.55
2022-12-01T05:11:16.666Z,94193.46
2022-12-01T05:11:50.128Z,94195.14
2022-12-01T05:12:23.390Z,94194.25
2022-12-01T05:12:58.415Z,94191.54
2022-12-01T05:13:31.690Z,94194.63
2022-12-01T05:14:06.285Z,94189.74
2022-12-01T05:14:39.685Z,94194.48
2022-12-01T05:15:13.462Z,94189.65
2022-12-01T05:15:46.709Z,94187.87
2022-12-01T05:16:25.730Z,94189.34
2022-12-01T05:17:00.655Z,94190.38
2022-12-01T05:17:36.933Z,94190.00
2022-12-01T05:18:10.561Z,94193.95
2022-12-01T05:18:44.122Z,94191.67
2022-12-01T05:19:36.007Z,94192.08
2022-12-01T05:20:33.637Z,94194.12
2022-12-01T05:21:09.176Z,94183.83
2022-12-01T05:21:44.256Z,94187.27
2022-12-01T05:22:27.012Z,94187.96
2022-12-01T05:23:15.243Z,94186.84
2022-12-01T05:23:50.326Z,94188.32
2022-12-01T05:24:23.549Z,94190.36
2022-12-01T05:24:56.893Z,94186.95
2022-12-01T05:25:30.681Z,94187.85
2022-12-01T05:26:07.296Z,94189.98
2022-12-01T05:26:42.391Z,94190.45
2022-12-01T05:27:15.749Z,94190.16
2022-12-01T05:27:48.908Z,94187.41
2022-12-01T05:28:24.425Z,94191.38
2022-12-01T05:28:57.742Z,94192.71
2022-12-01T05:29:33.272Z,94190.08
2022-12-01T05:30:07.403Z,94193.67
2022-12-01T05:30:41.166Z,94190.84
2022-12-01T05:31:15.639Z,94191.35
2022-12-01T05:31:49.038Z,94190.12
2022-12-01T05:32:22.398Z,94191.80
2022-12-01T05:32:56.121Z,94189.46
2022-12-01T05:33:30.266Z,94186.39
2022-12-01T05:34:03.865Z,94177.23
2022-12-01T05:34:37.142Z,94190.98
2022-12-01T05:35:10.287Z,94189.36
2022-12-01T05:35:43.619Z,94187.73
2022-12-01T05:36:16.940Z,94188.15
2022-12-01T05:36:50.290Z,94186.00
2022-12-01T05:37:23.658Z,94190.34
2022-12-01T05:37:57.033Z,94188.98
2022-12-01T05:38:30.425Z,94187.42
2022-12-01T05:39:05.047Z,94186.80
2022-12-01T05:39:40.340Z,94189.00
2022-12-01T05:40:13.661Z,94187.52
2022-12-01T05:40:54.619Z,94188.55
2022-12-01T05:41:27.904Z,94189.70
2022-12-01T05:42:01.376Z,94187.63
2022-12-01T05:42:34.644Z,94188.19
2022-12-01T05:43:08.721Z,94191.55
2022-12-01T05:43:42.410Z,94189.08
2022-12-01T05:44:15.740Z,94187.59
2022-12-01T05:44:49.069Z,94184.81
2022-12-01T05:45:22.677Z,94189.08
2022-12-01T05:45:56.806Z,94186.02
2022-12-01T05:46:30.131Z,94184.16
2022-12-01T05:47:03.635Z,94187.23
2022-12-01T05:47:36.976Z,94185.39
2022-12-01T05:48:10.314Z,94189.57
2022-12-01T05:48:43.673Z,94187.31
2022-12-01T05:49:17.655Z,94189.98
2022-12-01T05:49:54.734Z,94188.91
2022-12-01T05:50:30.438Z,94189.55
2022-12-01T05:51:12.260Z,94190.49
2022-12-01T05:51:45.475Z,94189.55
2022-12-01T05:52:18.840Z,94184.59
2022-12-01T05:52:52.269Z,94184.84
2022-12-01T05:53:25.502Z,94190.60
2022-12-01T05:54:02.644Z,94190.87
2022-12-01T05:54:35.988Z,94188.18
2022-12-01T05:55:09.778Z,94187.55
2022-12-01T05:55:43.009Z,94187.95
2022-12-01T05:56:16.270Z,94190.62
2022-12-01T05:56:49.579Z,94191.63
2022-12-01T05:57:22.842Z,94187.39
2022-12-01T05:57:56.925Z,94190.84
2022-12-01T05:58:31.051Z,94190.19
2022-12-01T05:59:04.395Z,94193.14
2022-12-01T05:59:37.577Z,94188.23
2022-12-01T06:00:12.164Z,94189.99
2022-12-01T06:00:46.320Z,94189.82
2022-12-01T06:01:20.106Z,94193.53
2022-12-01T06:01:53.340Z,94191.17
2022-12-01T06:02:27.116Z,94190.89
2022-12-01T06:03:00.806Z,94189.23
2022-12-01T06:03:34.267Z,94187.76
2022-12-01T06:04:09.447Z,94193.05
2022-12-01T06:04:43.295Z,94194.41
2022-12-01T06:05:17.005Z,94191.29
2022-12-01T06:05:51.285Z,94187.66
2022-12-01T06:06:24.725Z,94190.63
2022-12-01T06:06:57.991Z,94192.02
2022-12-01T06:07:32.314Z,94194.73
2022-12-01T06:08:17.195Z,94193.08
2022-12-01T06:08:58.163Z,94194.73
2022-12-01T06:09:35.180Z,94193.65
2022-12-01T06:10:10.595Z,94193.52
2022-12-01T06:10:44.936Z,94195.61
2022-12-01T06:11:18.146Z,94194.79
2022-12-01T06:11:52.738Z,94196.58
2022-12-01T06:12:26.051Z,94198.02
2022-12-01T06:12:59.403Z,94196.45
2022-12-01T06:13:32.666Z,94199.22
2022-12-01T06:14:06.254Z,94197.10
2022-12-01T06:14:40.969Z,94197.17
2022-12-01T06:15:14.542Z,94194.97
2022-12-01T06:16:00.264Z,94198.48
2022-12-01T06:16:33.824Z,94196.18
2022-12-01T06:17:07.307Z,94195.05
2022-12-01T06:17:44.248Z,94202.98
2022-12-01T06:18:17.581Z,94201.33
2022-12-01T06:18:50.904Z,94204.71
2022-12-01T06:19:24.575Z,94201.64
2022-12-01T06:19:57.965Z,94201.67
2022-12-01T06:20:31.212Z,94202.70
2022-12-01T06:21:06.832Z,94203.91
2022-12-01T06:21:40.109Z,94202.83
2022-12-01T06:22:13.646Z,94205.67
2022-12-01T06:22:48.534Z,94206.02
2022-12-01T06:23:24.286Z,94206.66
2022-12-01T06:24:00.898Z,94203.83
2022-12-01T06:24:34.220Z,94206.84
2022-12-01T06:25:08.644Z,94209.77
2022-12-01T06:25:41.952Z,94207.95
2022-12-01T06:26:15.205Z,94210.13
2022-12-01T06:26:48.497Z,94209.45
2022-12-01T06:27:21.796Z,94211.94
2022-12-01T06:27:59.040Z,94199.66
2022-12-01T06:28:32.442Z,94218.02
2022-12-01T06:29:05.872Z,94219.89
2022-12-01T06:29:47.852Z,94216.27
2022-12-01T06:30:21.233Z,94216.27
2022-12-01T06:30:59.317Z,94221.91
2022-12-01T06:31:36.091Z,94215.30
2022-12-01T06:32:10.491Z,94216.27
2022-12-01T06:32:43.956Z,94217.81
2022-12-01T06:33:17.240Z,94222.66
2022-12-01T06:33:50.671Z,94219.17
2022-12-01T06:34:24.076Z,94218.85
2022-12-01T06:34:57.369Z,94222.31
2022-12-01T06:35:30.714Z,94218.77
2022-12-01T06:36:06.994Z,94221.60
2022-12-01T06:36:40.365Z,94218.73
2022-12-01T06:37:15.792Z,94222.70
2022-12-01T06:37:49.161Z,94220.45
2022-12-01T06:38:22.412Z,94222.70
2022-12-01T06:38:55.712Z,94205.84
2022-12-01T06:39:28.948Z,94223.21
2022-12-01T06:40:02.273Z,94221.40
2022-12-01T06:40:35.562Z,94219.48
2022-12-01T06:41:08.950Z,94222.48
2022-12-01T06:41:42.946Z,94220.98
2022-12-01T06:42:16.240Z,94220.64
2022-12-01T06:42:49.638Z,94223.71
2022-12-01T06:43:25.760Z,94224.56
2022-12-01T06:44:01.302Z,94224.61
2022-12-01T06:44:34.600Z,94221.25
2022-12-01T06:45:11.493Z,94221.77
2022-12-01T06:45:45.150Z,94221.19
2022-12-01T06:46:18.690Z,94222.38
2022-12-01T06:46:53.092Z,94221.30
2022-12-01T06:47:27.288Z,94226.57
2022-12-01T06:48:00.593Z,94224.68
2022-12-01T06:48:36.745Z,94219.96
2022-12-01T06:49:13.933Z,94224.17
2022-12-01T06:49:47.697Z,94220.45
2022-12-01T06:50:24.901Z,94225.27
2022-12-01T06:50:59.656Z,94222.17
2022-12-01T06:51:34.777Z,94225.17
2022-12-01T06:52:08.216Z,94223.91
2022-12-01T06:52:41.592Z,94224.96
2022-12-01T06:53:18.028Z,94226.46
2022-12-01T06:53:55.228Z,94223.34
2022-12-01T06:54:28.610Z,94225.57
2022-12-01T06:55:03.993Z,94223.98
2022-12-01T06:55:39.030Z,94226.02
2022-12-01T06:56:12.661Z,94225.12
2022-12-01T06:56:46.249Z,94222.48
2022-12-01T06:57:20.031Z,94224.99
2022-12-01T06:57:53.966Z,94225.15
2022-12-01T06:58:27.808Z,94228.52
2022-12-01T06:59:01.290Z,94225.88
2022-12-01T06:59:36.102Z,94225.29
2022-12-01T07:00:10.392Z,94226.32
2022-12-01T07:00:48.975Z,94225.96
2022-12-01T07:01:27.435Z,94228.13
2022-12-01T07:02:01.110Z,94225.30
2022-12-01T07:02:34.817Z,94226.10
2022-12-01T07:03:11.406Z,94222.91
2022-12-01T07:03:57.234Z,94220.44
2022-12-01T07:04:31.260Z,94226.41
2022-12-01T07:05:05.034Z,94223.17
2022-12-01T07:05:38.349Z,94220.67
2022-12-01T07:06:11.703Z,94226.63
2022-12-01T07:06:45.052Z,94228.77
2022-12-01T07:07:18.265Z,94226.10
2022-12-01T07:07:56.359Z,94225.47
2022-12-01T07:08:33.613Z,94224.89
2022-12-01T07:09:06.953Z,94226.96
2022-12-01T07:09:42.429Z,94227.52
2022-12-01T07:10:15.752Z,94228.17
2022-12-01T07:11:03.830Z,94227.41
2022-12-01T07:11:39.701Z,94227.52
2022-12-01T07:12:13.828Z,94227.44
2022-12-01T07:12:47.103Z,94229.57
2022-12-01T07:13:20.505Z,94227.34
2022-12-01T07:13:58.854Z,94227.91
2022-12-01T07:14:32.271Z,94227.16
2022-12-01T07:15:08.111Z,94227.52
2022-12-01T07:15:41.370Z,94229.00
2022-12-01T07:16:16.216Z,94229.00
2022-12-01T07:16:49.680Z,94232.58
2022-12-01T07:17:23.252Z,94232.02